sensor_id;sensor_type;location;lat;lon;timestamp;P1;durP1;ratioP1;P2;durP2;ratioP2
23586;SDS011;11971;51.148;4.104;2023-07-13T00:01:45;105.13;;;37.95;;
23586;SDS011;11971;51.148;4.104;2023-07-13T00:04:14;106.60;;;38.58;;
23586;SDS011;11971;51.148;4.104;2023-07-13T00:06:41;106.78;;;37.80;;
23586;SDS011;11971;51.148;4.104;2023-07-13T00:09:09;108.10;;;38.10;;
23586;SDS011;11971;51.148;4.104;2023-07-13T00:11:37;104.82;;;38.33;;
23586;SDS011;11971;51.148;4.104;2023-07-13T00:14:04;107.25;;;37.92;;
23586;SDS011;11971;51.148;4.104;2023-07-13T00:16:30;102.70;;;37.47;;
23586;SDS011;11971;51.148;4.104;2023-07-13T00:18:58;105.30;;;38.47;;
23586;SDS011;11971;51.148;4.104;2023-07-13T00:21:26;103.82;;;38.25;;
23586;SDS011;11971;51.148;4.104;2023-07-13T00:23:53;103.40;;;38.08;;
23586;SDS011;11971;51.148;4.104;2023-07-13T00:26:19;104.53;;;37.97;;
23586;SDS011;11971;51.148;4.104;2023-07-13T00:28:46;102.93;;;37.78;;
23586;SDS011;11971;51.148;4.104;2023-07-13T00:31:13;99.97;;;37.60;;
23586;SDS011;11971;51.148;4.104;2023-07-13T00:33:40;102.65;;;37.92;;
23586;SDS011;11971;51.148;4.104;2023-07-13T00:36:08;104.93;;;38.03;;
23586;SDS011;11971;51.148;4.104;2023-07-13T00:38:36;107.47;;;38.42;;
23586;SDS011;11971;51.148;4.104;2023-07-13T00:41:03;109.07;;;37.85;;
23586;SDS011;11971;51.148;4.104;2023-07-13T00:43:30;111.25;;;37.92;;
23586;SDS011;11971;51.148;4.104;2023-07-13T00:46:17;106.78;;;38.33;;
23586;SDS011;11971;51.148;4.104;2023-07-13T00:48:49;104.13;;;38.08;;
23586;SDS011;11971;51.148;4.104;2023-07-13T00:51:19;105.50;;;38.47;;
23586;SDS011;11971;51.148;4.104;2023-07-13T00:53:48;109.30;;;38.03;;
23586;SDS011;11971;51.148;4.104;2023-07-13T00:56:16;112.68;;;39.10;;
23586;SDS011;11971;51.148;4.104;2023-07-13T00:58:43;105.05;;;38.10;;
23586;SDS011;11971;51.148;4.104;2023-07-13T01:01:09;106.18;;;38.03;;
23586;SDS011;11971;51.148;4.104;2023-07-13T01:03:38;103.90;;;38.22;;
23586;SDS011;11971;51.148;4.104;2023-07-13T01:06:05;100.60;;;38.10;;
23586;SDS011;11971;51.148;4.104;2023-07-13T01:08:33;107.10;;;38.70;;
23586;SDS011;11971;51.148;4.104;2023-07-13T01:11:00;104.53;;;38.53;;
23586;SDS011;11971;51.148;4.104;2023-07-13T01:13:27;104.60;;;38.45;;
23586;SDS011;11971;51.148;4.104;2023-07-13T01:15:55;106.00;;;38.35;;
23586;SDS011;11971;51.148;4.104;2023-07-13T01:18:23;106.75;;;38.45;;
23586;SDS011;11971;51.148;4.104;2023-07-13T01:20:53;104.30;;;38.80;;
23586;SDS011;11971;51.148;4.104;2023-07-13T01:23:20;108.10;;;38.97;;
23586;SDS011;11971;51.148;4.104;2023-07-13T01:25:47;104.40;;;37.85;;
23586;SDS011;11971;51.148;4.104;2023-07-13T01:28:14;109.75;;;38.55;;
23586;SDS011;11971;51.148;4.104;2023-07-13T01:30:42;109.57;;;38.60;;
23586;SDS011;11971;51.148;4.104;2023-07-13T01:33:11;105.13;;;37.88;;
23586;SDS011;11971;51.148;4.104;2023-07-13T01:35:38;105.50;;;38.10;;
23586;SDS011;11971;51.148;4.104;2023-07-13T01:38:07;106.82;;;38.17;;
23586;SDS011;11971;51.148;4.104;2023-07-13T01:40:36;102.97;;;38.38;;
23586;SDS011;11971;51.148;4.104;2023-07-13T01:43:03;105.85;;;38.70;;
23586;SDS011;11971;51.148;4.104;2023-07-13T01:45:31;107.60;;;38.67;;
23586;SDS011;11971;51.148;4.104;2023-07-13T01:47:57;112.38;;;39.03;;
23586;SDS011;11971;51.148;4.104;2023-07-13T01:50:24;115.57;;;38.95;;
23586;SDS011;11971;51.148;4.104;2023-07-13T01:52:51;103.82;;;38.38;;
23586;SDS011;11971;51.148;4.104;2023-07-13T01:55:19;106.82;;;38.22;;
23586;SDS011;11971;51.148;4.104;2023-07-13T01:57:47;105.82;;;38.90;;
23586;SDS011;11971;51.148;4.104;2023-07-13T02:00:14;104.75;;;37.95;;
23586;SDS011;11971;51.148;4.104;2023-07-13T02:02:41;109.32;;;38.20;;
23586;SDS011;11971;51.148;4.104;2023-07-13T02:05:08;109.65;;;38.50;;
23586;SDS011;11971;51.148;4.104;2023-07-13T02:07:34;108.03;;;38.67;;
23586;SDS011;11971;51.148;4.104;2023-07-13T02:10:01;103.18;;;38.65;;
23586;SDS011;11971;51.148;4.104;2023-07-13T02:12:30;106.70;;;38.58;;
23586;SDS011;11971;51.148;4.104;2023-07-13T02:14:56;106.93;;;38.67;;
23586;SDS011;11971;51.148;4.104;2023-07-13T02:17:23;102.82;;;38.47;;
23586;SDS011;11971;51.148;4.104;2023-07-13T02:19:50;108.18;;;38.42;;
23586;SDS011;11971;51.148;4.104;2023-07-13T02:22:16;103.63;;;38.78;;
23586;SDS011;11971;51.148;4.104;2023-07-13T02:24:43;104.22;;;38.67;;
23586;SDS011;11971;51.148;4.104;2023-07-13T02:27:10;107.57;;;38.75;;
23586;SDS011;11971;51.148;4.104;2023-07-13T02:29:38;110.47;;;39.00;;
23586;SDS011;11971;51.148;4.104;2023-07-13T02:32:05;103.05;;;38.45;;
23586;SDS011;11971;51.148;4.104;2023-07-13T02:34:32;102.20;;;38.42;;
23586;SDS011;11971;51.148;4.104;2023-07-13T02:36:59;109.82;;;38.85;;
23586;SDS011;11971;51.148;4.104;2023-07-13T02:39:26;108.85;;;38.55;;
23586;SDS011;11971;51.148;4.104;2023-07-13T02:41:53;105.10;;;39.03;;
23586;SDS011;11971;51.148;4.104;2023-07-13T02:44:20;110.70;;;38.80;;
23586;SDS011;11971;51.148;4.104;2023-07-13T02:46:48;108.70;;;39.03;;
23586;SDS011;11971;51.148;4.104;2023-07-13T02:49:14;106.32;;;38.97;;
23586;SDS011;11971;51.148;4.104;2023-07-13T02:51:41;106.03;;;38.65;;
23586;SDS011;11971;51.148;4.104;2023-07-13T02:54:08;108.18;;;39.25;;
23586;SDS011;11971;51.148;4.104;2023-07-13T02:56:36;101.60;;;37.95;;
23586;SDS011;11971;51.148;4.104;2023-07-13T02:59:04;108.30;;;38.50;;
23586;SDS011;11971;51.148;4.104;2023-07-13T03:01:32;105.97;;;38.45;;
23586;SDS011;11971;51.148;4.104;2023-07-13T03:04:02;111.18;;;39.25;;
23586;SDS011;11971;51.148;4.104;2023-07-13T03:06:30;105.88;;;38.47;;
23586;SDS011;11971;51.148;4.104;2023-07-13T03:08:57;107.82;;;38.30;;
23586;SDS011;11971;51.148;4.104;2023-07-13T03:11:25;107.15;;;38.67;;
23586;SDS011;11971;51.148;4.104;2023-07-13T03:13:51;109.93;;;38.90;;
23586;SDS011;11971;51.148;4.104;2023-07-13T03:16:18;113.47;;;39.33;;
23586;SDS011;11971;51.148;4.104;2023-07-13T03:18:45;110.25;;;39.55;;
23586;SDS011;11971;51.148;4.104;2023-07-13T03:21:14;105.93;;;39.08;;
23586;SDS011;11971;51.148;4.104;2023-07-13T03:23:41;105.65;;;39.28;;
23586;SDS011;11971;51.148;4.104;2023-07-13T03:26:08;105.75;;;38.70;;
23586;SDS011;11971;51.148;4.104;2023-07-13T03:28:37;113.25;;;38.80;;
23586;SDS011;11971;51.148;4.104;2023-07-13T03:31:06;109.30;;;38.95;;
23586;SDS011;11971;51.148;4.104;2023-07-13T03:33:33;109.10;;;38.92;;
23586;SDS011;11971;51.148;4.104;2023-07-13T03:36:01;114.22;;;39.45;;
23586;SDS011;11971;51.148;4.104;2023-07-13T03:38:30;113.03;;;38.92;;
23586;SDS011;11971;51.148;4.104;2023-07-13T03:40:56;108.60;;;38.90;;
23586;SDS011;11971;51.148;4.104;2023-07-13T03:43:23;103.40;;;38.67;;
23586;SDS011;11971;51.148;4.104;2023-07-13T03:45:50;105.53;;;38.90;;
23586;SDS011;11971;51.148;4.104;2023-07-13T03:48:16;107.57;;;38.90;;
23586;SDS011;11971;51.148;4.104;2023-07-13T03:50:43;115.13;;;38.92;;
23586;SDS011;11971;51.148;4.104;2023-07-13T03:53:10;109.47;;;39.05;;
23586;SDS011;11971;51.148;4.104;2023-07-13T03:55:38;110.28;;;38.80;;
23586;SDS011;11971;51.148;4.104;2023-07-13T04:00:59;113.93;;;39.15;;
23586;SDS011;11971;51.148;4.104;2023-07-13T04:03:27;111.82;;;39.67;;
23586;SDS011;11971;51.148;4.104;2023-07-13T04:05:57;106.00;;;38.95;;
23586;SDS011;11971;51.148;4.104;2023-07-13T04:08:26;106.60;;;38.97;;
23586;SDS011;11971;51.148;4.104;2023-07-13T04:10:55;110.38;;;39.17;;
23586;SDS011;11971;51.148;4.104;2023-07-13T04:13:22;108.20;;;38.70;;
23586;SDS011;11971;51.148;4.104;2023-07-13T04:15:49;110.20;;;38.78;;
23586;SDS011;11971;51.148;4.104;2023-07-13T04:18:16;107.88;;;38.88;;
23586;SDS011;11971;51.148;4.104;2023-07-13T04:20:43;110.32;;;39.72;;
23586;SDS011;11971;51.148;4.104;2023-07-13T04:23:10;107.25;;;38.83;;
23586;SDS011;11971;51.148;4.104;2023-07-13T04:25:37;107.03;;;38.72;;
23586;SDS011;11971;51.148;4.104;2023-07-13T04:28:05;114.38;;;39.63;;
23586;SDS011;11971;51.148;4.104;2023-07-13T04:30:32;106.25;;;38.40;;
23586;SDS011;11971;51.148;4.104;2023-07-13T04:32:58;115.93;;;39.85;;
23586;SDS011;11971;51.148;4.104;2023-07-13T04:35:25;106.55;;;39.03;;
23586;SDS011;11971;51.148;4.104;2023-07-13T04:37:52;115.55;;;39.45;;
23586;SDS011;11971;51.148;4.104;2023-07-13T04:40:19;105.95;;;39.22;;
23586;SDS011;11971;51.148;4.104;2023-07-13T04:42:46;105.50;;;39.53;;
23586;SDS011;11971;51.148;4.104;2023-07-13T04:45:14;110.50;;;39.85;;
23586;SDS011;11971;51.148;4.104;2023-07-13T04:47:42;113.03;;;39.50;;
23586;SDS011;11971;51.148;4.104;2023-07-13T04:50:09;110.03;;;39.38;;
23586;SDS011;11971;51.148;4.104;2023-07-13T04:52:36;117.03;;;39.53;;
23586;SDS011;11971;51.148;4.104;2023-07-13T04:55:03;108.10;;;38.92;;
23586;SDS011;11971;51.148;4.104;2023-07-13T04:57:31;111.75;;;39.47;;
23586;SDS011;11971;51.148;4.104;2023-07-13T04:59:58;107.68;;;39.13;;
23586;SDS011;11971;51.148;4.104;2023-07-13T05:02:27;111.15;;;39.20;;
23586;SDS011;11971;51.148;4.104;2023-07-13T05:04:56;107.38;;;39.47;;
23586;SDS011;11971;51.148;4.104;2023-07-13T05:07:22;109.78;;;38.92;;
23586;SDS011;11971;51.148;4.104;2023-07-13T05:09:49;108.40;;;39.30;;
23586;SDS011;11971;51.148;4.104;2023-07-13T05:12:16;114.13;;;39.60;;
23586;SDS011;11971;51.148;4.104;2023-07-13T05:14:43;107.07;;;38.95;;
23586;SDS011;11971;51.148;4.104;2023-07-13T05:17:09;105.75;;;38.90;;
23586;SDS011;11971;51.148;4.104;2023-07-13T05:19:37;114.03;;;39.50;;
23586;SDS011;11971;51.148;4.104;2023-07-13T05:22:04;107.70;;;39.33;;
23586;SDS011;11971;51.148;4.104;2023-07-13T05:24:31;111.95;;;38.97;;
23586;SDS011;11971;51.148;4.104;2023-07-13T05:26:57;110.93;;;39.10;;
23586;SDS011;11971;51.148;4.104;2023-07-13T05:29:24;113.40;;;39.75;;
23586;SDS011;11971;51.148;4.104;2023-07-13T05:31:51;118.70;;;39.45;;
23586;SDS011;11971;51.148;4.104;2023-07-13T05:34:17;110.18;;;39.35;;
23586;SDS011;11971;51.148;4.104;2023-07-13T05:36:45;104.85;;;39.40;;
23586;SDS011;11971;51.148;4.104;2023-07-13T05:39:12;111.70;;;39.30;;
23586;SDS011;11971;51.148;4.104;2023-07-13T05:41:39;114.55;;;40.08;;
23586;SDS011;11971;51.148;4.104;2023-07-13T05:44:05;109.13;;;39.20;;
23586;SDS011;11971;51.148;4.104;2023-07-13T05:46:32;110.63;;;39.55;;
23586;SDS011;11971;51.148;4.104;2023-07-13T05:48:59;111.18;;;39.67;;
23586;SDS011;11971;51.148;4.104;2023-07-13T05:51:26;106.25;;;39.05;;
23586;SDS011;11971;51.148;4.104;2023-07-13T05:53:54;114.20;;;40.22;;
23586;SDS011;11971;51.148;4.104;2023-07-13T05:56:20;108.15;;;39.75;;
23586;SDS011;11971;51.148;4.104;2023-07-13T05:58:47;107.68;;;39.35;;
23586;SDS011;11971;51.148;4.104;2023-07-13T06:01:15;111.43;;;39.60;;
23586;SDS011;11971;51.148;4.104;2023-07-13T06:03:42;108.60;;;39.03;;
23586;SDS011;11971;51.148;4.104;2023-07-13T06:06:09;111.55;;;40.28;;
23586;SDS011;11971;51.148;4.104;2023-07-13T06:08:36;112.00;;;39.25;;
23586;SDS011;11971;51.148;4.104;2023-07-13T06:11:06;120.95;;;40.00;;
23586;SDS011;11971;51.148;4.104;2023-07-13T06:13:33;112.88;;;40.05;;
23586;SDS011;11971;51.148;4.104;2023-07-13T06:16:00;108.38;;;39.65;;
23586;SDS011;11971;51.148;4.104;2023-07-13T06:20:56;109.38;;;39.38;;
23586;SDS011;11971;51.148;4.104;2023-07-13T06:23:22;109.35;;;39.70;;
23586;SDS011;11971;51.148;4.104;2023-07-13T06:25:49;109.47;;;39.67;;
23586;SDS011;11971;51.148;4.104;2023-07-13T06:28:17;115.93;;;39.92;;
23586;SDS011;11971;51.148;4.104;2023-07-13T06:30:44;114.03;;;39.75;;
23586;SDS011;11971;51.148;4.104;2023-07-13T06:33:11;113.60;;;39.38;;
23586;SDS011;11971;51.148;4.104;2023-07-13T06:35:38;114.25;;;40.47;;
23586;SDS011;11971;51.148;4.104;2023-07-13T06:38:04;115.85;;;40.83;;
23586;SDS011;11971;51.148;4.104;2023-07-13T06:40:31;110.57;;;39.92;;
23586;SDS011;11971;51.148;4.104;2023-07-13T06:42:57;111.68;;;40.13;;
23586;SDS011;11971;51.148;4.104;2023-07-13T06:45:25;114.35;;;39.90;;
23586;SDS011;11971;51.148;4.104;2023-07-13T06:47:52;111.53;;;39.55;;
23586;SDS011;11971;51.148;4.104;2023-07-13T06:50:19;112.57;;;40.08;;
23586;SDS011;11971;51.148;4.104;2023-07-13T06:52:45;111.85;;;39.80;;
23586;SDS011;11971;51.148;4.104;2023-07-13T06:55:12;113.38;;;40.00;;
23586;SDS011;11971;51.148;4.104;2023-07-13T06:57:38;111.68;;;40.00;;
23586;SDS011;11971;51.148;4.104;2023-07-13T07:00:05;111.90;;;40.00;;
23586;SDS011;11971;51.148;4.104;2023-07-13T07:02:36;112.13;;;40.10;;
23586;SDS011;11971;51.148;4.104;2023-07-13T07:05:03;112.15;;;40.42;;
23586;SDS011;11971;51.148;4.104;2023-07-13T07:07:30;110.43;;;39.70;;
23586;SDS011;11971;51.148;4.104;2023-07-13T07:09:56;116.20;;;40.65;;
23586;SDS011;11971;51.148;4.104;2023-07-13T07:12:23;112.80;;;40.10;;
23586;SDS011;11971;51.148;4.104;2023-07-13T07:14:49;114.05;;;40.13;;
23586;SDS011;11971;51.148;4.104;2023-07-13T07:17:16;112.05;;;40.33;;
23586;SDS011;11971;51.148;4.104;2023-07-13T07:19:44;113.45;;;40.17;;
23586;SDS011;11971;51.148;4.104;2023-07-13T07:22:11;116.75;;;40.50;;
23586;SDS011;11971;51.148;4.104;2023-07-13T07:24:38;109.18;;;40.35;;
23586;SDS011;11971;51.148;4.104;2023-07-13T07:27:04;111.43;;;40.20;;
23586;SDS011;11971;51.148;4.104;2023-07-13T07:29:31;110.80;;;40.42;;
23586;SDS011;11971;51.148;4.104;2023-07-13T07:31:58;118.22;;;40.78;;
23586;SDS011;11971;51.148;4.104;2023-07-13T07:34:25;112.93;;;40.58;;
23586;SDS011;11971;51.148;4.104;2023-07-13T07:36:53;116.75;;;40.53;;
23586;SDS011;11971;51.148;4.104;2023-07-13T07:39:20;115.97;;;41.03;;
23586;SDS011;11971;51.148;4.104;2023-07-13T07:41:47;115.15;;;41.00;;
23586;SDS011;11971;51.148;4.104;2023-07-13T07:44:13;108.95;;;40.92;;
23586;SDS011;11971;51.148;4.104;2023-07-13T07:46:40;115.43;;;41.28;;
23586;SDS011;11971;51.148;4.104;2023-07-13T07:49:07;115.25;;;40.72;;
23586;SDS011;11971;51.148;4.104;2023-07-13T07:51:34;113.65;;;41.03;;
23586;SDS011;11971;51.148;4.104;2023-07-13T07:54:03;114.20;;;41.55;;
23586;SDS011;11971;51.148;4.104;2023-07-13T07:58:56;112.03;;;41.03;;
23586;SDS011;11971;51.148;4.104;2023-07-13T08:01:23;111.90;;;40.75;;
23586;SDS011;11971;51.148;4.104;2023-07-13T08:03:49;113.50;;;40.67;;
23586;SDS011;11971;51.148;4.104;2023-07-13T08:06:16;120.70;;;41.33;;
23586;SDS011;11971;51.148;4.104;2023-07-13T08:08:44;115.05;;;40.85;;
23586;SDS011;11971;51.148;4.104;2023-07-13T08:11:13;113.30;;;41.33;;
23586;SDS011;11971;51.148;4.104;2023-07-13T08:13:39;115.68;;;41.00;;
23586;SDS011;11971;51.148;4.104;2023-07-13T08:16:06;115.28;;;41.00;;
23586;SDS011;11971;51.148;4.104;2023-07-13T08:18:33;114.10;;;40.92;;
23586;SDS011;11971;51.148;4.104;2023-07-13T08:21:02;114.88;;;41.05;;
23586;SDS011;11971;51.148;4.104;2023-07-13T08:23:29;112.35;;;40.63;;
23586;SDS011;11971;51.148;4.104;2023-07-13T08:25:57;116.25;;;41.22;;
23586;SDS011;11971;51.148;4.104;2023-07-13T08:30:54;112.53;;;41.20;;
23586;SDS011;11971;51.148;4.104;2023-07-13T08:33:21;113.18;;;41.00;;
23586;SDS011;11971;51.148;4.104;2023-07-13T08:35:49;113.18;;;40.63;;
23586;SDS011;11971;51.148;4.104;2023-07-13T08:38:17;110.32;;;40.83;;
23586;SDS011;11971;51.148;4.104;2023-07-13T08:40:53;115.95;;;40.85;;
23586;SDS011;11971;51.148;4.104;2023-07-13T08:43:23;111.70;;;41.05;;
23586;SDS011;11971;51.148;4.104;2023-07-13T08:45:57;117.35;;;41.28;;
23586;SDS011;11971;51.148;4.104;2023-07-13T08:48:28;111.68;;;40.55;;
23586;SDS011;11971;51.148;4.104;2023-07-13T08:50:59;109.38;;;40.15;;
23586;SDS011;11971;51.148;4.104;2023-07-13T08:53:31;115.28;;;40.80;;
23586;SDS011;11971;51.148;4.104;2023-07-13T08:56:02;110.38;;;40.45;;
23586;SDS011;11971;51.148;4.104;2023-07-13T08:58:31;112.90;;;40.35;;
23586;SDS011;11971;51.148;4.104;2023-07-13T09:00:59;108.38;;;40.33;;
23586;SDS011;11971;51.148;4.104;2023-07-13T09:03:37;112.15;;;40.35;;
23586;SDS011;11971;51.148;4.104;2023-07-13T09:06:07;108.55;;;40.15;;
23586;SDS011;11971;51.148;4.104;2023-07-13T09:08:38;114.90;;;39.97;;
23586;SDS011;11971;51.148;4.104;2023-07-13T09:11:18;110.72;;;40.00;;
23586;SDS011;11971;51.148;4.104;2023-07-13T09:13:57;111.20;;;40.30;;
23586;SDS011;11971;51.148;4.104;2023-07-13T09:16:28;109.63;;;40.20;;
23586;SDS011;11971;51.148;4.104;2023-07-13T09:18:56;107.88;;;39.92;;
23586;SDS011;11971;51.148;4.104;2023-07-13T09:21:27;110.22;;;40.08;;
23586;SDS011;11971;51.148;4.104;2023-07-13T09:23:59;110.85;;;40.17;;
23586;SDS011;11971;51.148;4.104;2023-07-13T09:26:28;108.20;;;40.13;;
23586;SDS011;11971;51.148;4.104;2023-07-13T09:28:59;116.33;;;40.10;;
23586;SDS011;11971;51.148;4.104;2023-07-13T09:31:28;110.25;;;40.33;;
23586;SDS011;11971;51.148;4.104;2023-07-13T09:33:59;110.47;;;40.42;;
23586;SDS011;11971;51.148;4.104;2023-07-13T09:36:27;109.28;;;39.85;;
23586;SDS011;11971;51.148;4.104;2023-07-13T09:38:57;110.43;;;40.17;;
23586;SDS011;11971;51.148;4.104;2023-07-13T09:41:27;111.43;;;40.45;;
23586;SDS011;11971;51.148;4.104;2023-07-13T09:44:06;109.40;;;40.13;;
23586;SDS011;11971;51.148;4.104;2023-07-13T09:46:36;113.60;;;40.75;;
23586;SDS011;11971;51.148;4.104;2023-07-13T09:49:03;110.22;;;40.38;;
23586;SDS011;11971;51.148;4.104;2023-07-13T09:51:30;106.80;;;40.40;;
23586;SDS011;11971;51.148;4.104;2023-07-13T09:53:57;110.57;;;40.50;;
23586;SDS011;11971;51.148;4.104;2023-07-13T09:56:24;110.93;;;40.50;;
23586;SDS011;11971;51.148;4.104;2023-07-13T09:58:52;111.72;;;40.90;;
23586;SDS011;11971;51.148;4.104;2023-07-13T10:01:32;109.60;;;40.55;;
23586;SDS011;11971;51.148;4.104;2023-07-13T10:03:59;111.55;;;40.35;;
23586;SDS011;11971;51.148;4.104;2023-07-13T10:06:26;108.53;;;40.08;;
23586;SDS011;11971;51.148;4.104;2023-07-13T10:08:55;110.95;;;40.60;;
23586;SDS011;11971;51.148;4.104;2023-07-13T10:11:23;110.88;;;40.80;;
23586;SDS011;11971;51.148;4.104;2023-07-13T10:13:52;107.93;;;40.33;;
23586;SDS011;11971;51.148;4.104;2023-07-13T10:16:22;112.97;;;40.70;;
23586;SDS011;11971;51.148;4.104;2023-07-13T10:18:51;108.05;;;40.47;;
23586;SDS011;11971;51.148;4.104;2023-07-13T10:21:21;108.60;;;40.33;;
23586;SDS011;11971;51.148;4.104;2023-07-13T10:23:51;110.68;;;40.72;;
23586;SDS011;11971;51.148;4.104;2023-07-13T10:26:21;111.40;;;40.25;;
23586;SDS011;11971;51.148;4.104;2023-07-13T10:28:51;113.72;;;40.67;;
23586;SDS011;11971;51.148;4.104;2023-07-13T10:31:20;111.00;;;40.83;;
23586;SDS011;11971;51.148;4.104;2023-07-13T10:33:47;110.70;;;40.05;;
23586;SDS011;11971;51.148;4.104;2023-07-13T10:36:18;110.82;;;41.22;;
23586;SDS011;11971;51.148;4.104;2023-07-13T10:38:50;114.70;;;40.67;;
23586;SDS011;11971;51.148;4.104;2023-07-13T10:41:18;112.18;;;40.80;;
23586;SDS011;11971;51.148;4.104;2023-07-13T10:43:46;109.97;;;40.63;;
23586;SDS011;11971;51.148;4.104;2023-07-13T10:46:17;112.00;;;40.85;;
23586;SDS011;11971;51.148;4.104;2023-07-13T10:48:46;108.20;;;40.28;;
23586;SDS011;11971;51.148;4.104;2023-07-13T10:51:17;111.07;;;40.58;;
23586;SDS011;11971;51.148;4.104;2023-07-13T10:53:46;114.05;;;41.20;;
23586;SDS011;11971;51.148;4.104;2023-07-13T10:56:19;111.07;;;41.03;;
23586;SDS011;11971;51.148;4.104;2023-07-13T10:58:50;112.03;;;41.38;;
23586;SDS011;11971;51.148;4.104;2023-07-13T11:01:28;113.05;;;41.03;;
23586;SDS011;11971;51.148;4.104;2023-07-13T11:04:08;113.60;;;40.92;;
23586;SDS011;11971;51.148;4.104;2023-07-13T11:06:41;107.47;;;41.00;;
23586;SDS011;11971;51.148;4.104;2023-07-13T11:09:30;104.95;;;40.42;;
23586;SDS011;11971;51.148;4.104;2023-07-13T11:11:58;107.15;;;40.63;;
23586;SDS011;11971;51.148;4.104;2023-07-13T11:14:26;109.40;;;40.45;;
23586;SDS011;11971;51.148;4.104;2023-07-13T11:16:55;106.25;;;41.10;;
23586;SDS011;11971;51.148;4.104;2023-07-13T11:19:26;107.32;;;40.63;;
23586;SDS011;11971;51.148;4.104;2023-07-13T11:22:16;107.50;;;40.58;;
23586;SDS011;11971;51.148;4.104;2023-07-13T11:24:49;116.03;;;42.05;;
23586;SDS011;11971;51.148;4.104;2023-07-13T11:27:31;117.57;;;42.13;;
23586;SDS011;11971;51.148;4.104;2023-07-13T11:30:21;112.32;;;42.22;;
23586;SDS011;11971;51.148;4.104;2023-07-13T11:32:51;111.32;;;42.47;;
23586;SDS011;11971;51.148;4.104;2023-07-13T11:35:31;110.93;;;41.42;;
23586;SDS011;11971;51.148;4.104;2023-07-13T11:38:03;108.05;;;41.40;;
23586;SDS011;11971;51.148;4.104;2023-07-13T11:40:38;107.93;;;41.67;;
23586;SDS011;11971;51.148;4.104;2023-07-13T11:43:06;106.18;;;41.05;;
23586;SDS011;11971;51.148;4.104;2023-07-13T11:45:33;104.65;;;40.40;;
23586;SDS011;11971;51.148;4.104;2023-07-13T11:47:59;105.47;;;40.42;;
23586;SDS011;11971;51.148;4.104;2023-07-13T11:50:26;105.43;;;40.35;;
23586;SDS011;11971;51.148;4.104;2023-07-13T11:52:53;104.55;;;39.65;;
23586;SDS011;11971;51.148;4.104;2023-07-13T11:55:22;106.00;;;40.33;;
23586;SDS011;11971;51.148;4.104;2023-07-13T11:57:51;104.70;;;39.85;;
23586;SDS011;11971;51.148;4.104;2023-07-13T12:00:19;103.18;;;39.55;;
23586;SDS011;11971;51.148;4.104;2023-07-13T12:02:50;103.75;;;39.88;;
23586;SDS011;11971;51.148;4.104;2023-07-13T12:05:18;106.93;;;40.22;;
23586;SDS011;11971;51.148;4.104;2023-07-13T12:07:45;105.40;;;39.40;;
23586;SDS011;11971;51.148;4.104;2023-07-13T12:10:16;102.22;;;39.00;;
23586;SDS011;11971;51.148;4.104;2023-07-13T12:12:51;103.32;;;39.25;;
23586;SDS011;11971;51.148;4.104;2023-07-13T12:15:19;106.50;;;40.05;;
23586;SDS011;11971;51.148;4.104;2023-07-13T12:17:47;104.97;;;39.17;;
23586;SDS011;11971;51.148;4.104;2023-07-13T12:20:17;106.07;;;39.53;;
23586;SDS011;11971;51.148;4.104;2023-07-13T12:22:47;105.70;;;39.40;;
23586;SDS011;11971;51.148;4.104;2023-07-13T12:25:14;106.95;;;39.92;;
23586;SDS011;11971;51.148;4.104;2023-07-13T12:27:41;106.70;;;39.85;;
23586;SDS011;11971;51.148;4.104;2023-07-13T12:30:21;105.28;;;40.05;;
23586;SDS011;11971;51.148;4.104;2023-07-13T12:32:55;109.68;;;39.92;;
23586;SDS011;11971;51.148;4.104;2023-07-13T12:35:23;111.30;;;40.20;;
23586;SDS011;11971;51.148;4.104;2023-07-13T12:37:50;108.65;;;40.33;;
23586;SDS011;11971;51.148;4.104;2023-07-13T12:40:18;109.60;;;40.83;;
23586;SDS011;11971;51.148;4.104;2023-07-13T12:42:47;106.78;;;40.55;;
23586;SDS011;11971;51.148;4.104;2023-07-13T12:45:17;108.05;;;40.58;;
23586;SDS011;11971;51.148;4.104;2023-07-13T12:47:48;108.68;;;40.75;;
23586;SDS011;11971;51.148;4.104;2023-07-13T12:50:17;110.03;;;40.50;;
23586;SDS011;11971;51.148;4.104;2023-07-13T12:52:50;108.72;;;40.45;;
23586;SDS011;11971;51.148;4.104;2023-07-13T12:55:17;113.68;;;41.00;;
23586;SDS011;11971;51.148;4.104;2023-07-13T12:57:47;114.18;;;41.22;;
23586;SDS011;11971;51.148;4.104;2023-07-13T13:00:23;108.82;;;40.97;;
23586;SDS011;11971;51.148;4.104;2023-07-13T13:02:53;107.00;;;40.60;;
23586;SDS011;11971;51.148;4.104;2023-07-13T13:05:21;111.15;;;41.20;;
23586;SDS011;11971;51.148;4.104;2023-07-13T13:07:48;112.20;;;40.92;;
23586;SDS011;11971;51.148;4.104;2023-07-13T13:10:15;110.00;;;40.92;;
23586;SDS011;11971;51.148;4.104;2023-07-13T13:12:42;108.38;;;40.95;;
23586;SDS011;11971;51.148;4.104;2023-07-13T13:15:09;115.13;;;42.83;;
23586;SDS011;11971;51.148;4.104;2023-07-13T13:17:36;115.30;;;41.55;;
23586;SDS011;11971;51.148;4.104;2023-07-13T13:20:11;111.18;;;40.92;;
23586;SDS011;11971;51.148;4.104;2023-07-13T13:22:41;113.95;;;41.35;;
23586;SDS011;11971;51.148;4.104;2023-07-13T13:25:08;114.88;;;41.30;;
23586;SDS011;11971;51.148;4.104;2023-07-13T13:27:36;110.97;;;41.13;;
23586;SDS011;11971;51.148;4.104;2023-07-13T13:30:05;112.55;;;42.08;;
23586;SDS011;11971;51.148;4.104;2023-07-13T13:32:37;111.70;;;41.42;;
23586;SDS011;11971;51.148;4.104;2023-07-13T13:35:08;110.35;;;41.25;;
23586;SDS011;11971;51.148;4.104;2023-07-13T13:37:39;109.72;;;41.53;;
23586;SDS011;11971;51.148;4.104;2023-07-13T13:40:13;113.97;;;40.72;;
23586;SDS011;11971;51.148;4.104;2023-07-13T13:42:41;110.88;;;41.40;;
23586;SDS011;11971;51.148;4.104;2023-07-13T13:45:08;111.20;;;40.92;;
23586;SDS011;11971;51.148;4.104;2023-07-13T13:47:35;109.35;;;40.30;;
23586;SDS011;11971;51.148;4.104;2023-07-13T13:50:10;107.57;;;40.83;;
23586;SDS011;11971;51.148;4.104;2023-07-13T13:52:38;111.95;;;40.78;;
23586;SDS011;11971;51.148;4.104;2023-07-13T13:55:10;108.80;;;41.08;;
23586;SDS011;11971;51.148;4.104;2023-07-13T13:57:38;113.28;;;41.05;;
23586;SDS011;11971;51.148;4.104;2023-07-13T14:00:05;115.70;;;41.20;;
23586;SDS011;11971;51.148;4.104;2023-07-13T14:02:34;110.07;;;41.22;;
23586;SDS011;11971;51.148;4.104;2023-07-13T14:05:01;109.38;;;40.35;;
23586;SDS011;11971;51.148;4.104;2023-07-13T14:07:30;108.75;;;40.63;;
23586;SDS011;11971;51.148;4.104;2023-07-13T14:09:57;108.80;;;40.35;;
23586;SDS011;11971;51.148;4.104;2023-07-13T14:12:25;107.72;;;40.17;;
23586;SDS011;11971;51.148;4.104;2023-07-13T14:14:53;107.35;;;40.15;;
23586;SDS011;11971;51.148;4.104;2023-07-13T14:17:21;110.28;;;40.60;;
23586;SDS011;11971;51.148;4.104;2023-07-13T14:19:51;109.80;;;40.65;;
23586;SDS011;11971;51.148;4.104;2023-07-13T14:22:22;110.05;;;40.55;;
23586;SDS011;11971;51.148;4.104;2023-07-13T14:24:51;109.63;;;40.72;;
23586;SDS011;11971;51.148;4.104;2023-07-13T14:27:18;110.00;;;40.70;;